Cedar Falls, North Carolina
Current Conditions -  °F | °C
As of 8:15 PM on Friday 28 Nov 2014 (Local Time) from KHBI Reporting Station
Clear Clear  
Wind Chill: 31°   Ceiling: Unl
Heat Index: 31°   Visibility: 10mi
Dew Point: 25°   Wind: 0mph
Humidity: 77%   Direction: NA
Pressure: 30.32"   Gusts: NA
Location:  35.75°N, 79.73°W
Report Text: KHBI 290115Z AUTO 00000KT 10SM CLR 00/M04 A3032 RMK AO2 T10051040
Loading
Personal Weather Stations






























Interactive Weather Map New forecast layout! Learn more

10-Day Weather Forecast

Advertisements
Track Severe Weather on mobile